createdAt,value
2022-12-15T00:00:01.792Z,-3.73
2022-12-15T00:02:47.346Z,-3.73
2022-12-15T00:05:33.172Z,-3.70
2022-12-15T00:08:26.929Z,-3.72
2022-12-15T00:11:12.667Z,-3.73
2022-12-15T00:14:00.094Z,-3.69
2022-12-15T00:16:45.447Z,-3.55
2022-12-15T00:19:30.813Z,-3.51
2022-12-15T00:22:16.088Z,-3.52
2022-12-15T00:25:03.095Z,-3.52
2022-12-15T00:27:48.567Z,-3.53
2022-12-15T00:30:34.134Z,-3.52
2022-12-15T00:33:19.654Z,-3.50
2022-12-15T00:36:05.085Z,-3.48
2022-12-15T00:38:43.986Z,-3.41
2022-12-15T00:41:15.328Z,-3.37
2022-12-15T00:43:44.034Z,-3.39
2022-12-15T00:46:29.332Z,-3.20
2022-12-15T00:48:57.511Z,-3.12
2022-12-15T00:51:43.371Z,-3.08
2022-12-15T00:54:29.248Z,-2.90
2022-12-15T00:57:16.171Z,-2.90
2022-12-15T01:00:01.771Z,-2.98
2022-12-15T01:02:46.925Z,-3.02
2022-12-15T01:05:32.586Z,-2.83
2022-12-15T01:08:18.416Z,-2.76
2022-12-15T01:11:03.555Z,-2.77
2022-12-15T01:13:50.119Z,-2.74
2022-12-15T01:16:36.093Z,-2.62
2022-12-15T01:19:21.601Z,-2.60
2022-12-15T01:21:50.125Z,-2.57
2022-12-15T01:24:18.277Z,-2.63
2022-12-15T01:26:46.353Z,-2.66
2022-12-15T01:29:15.970Z,-2.74
2022-12-15T01:31:44.382Z,-2.77
2022-12-15T01:34:22.552Z,-3.02
2022-12-15T01:36:50.388Z,-2.93
2022-12-15T01:39:18.242Z,-2.98
2022-12-15T01:41:45.226Z,-2.96
2022-12-15T01:44:19.402Z,-2.88
2022-12-15T01:46:50.527Z,-2.95
2022-12-15T01:49:23.226Z,-2.89
2022-12-15T01:51:56.896Z,-2.92
2022-12-15T01:54:30.264Z,-2.97
2022-12-15T01:57:02.034Z,-2.92
2022-12-15T01:59:37.058Z,-2.91
2022-12-15T02:02:05.789Z,-2.84
2022-12-15T02:04:34.839Z,-2.88
2022-12-15T02:07:02.967Z,-2.83
2022-12-15T02:09:31.695Z,-2.95
2022-12-15T02:12:03.311Z,-2.98
2022-12-15T02:14:49.869Z,-2.92
2022-12-15T02:17:28.482Z,-2.98
2022-12-15T02:20:35.056Z,-2.98
2022-12-15T02:23:50.318Z,-2.97
2022-12-15T02:26:59.226Z,-2.93
2022-12-15T02:29:53.913Z,-2.90
2022-12-15T02:32:27.907Z,-2.87
2022-12-15T02:35:03.324Z,-2.87
2022-12-15T02:37:34.385Z,-2.81
2022-12-15T02:40:02.962Z,-2.72
2022-12-15T02:42:34.193Z,-2.66
2022-12-15T02:45:06.660Z,-2.70
2022-12-15T02:47:46.246Z,-2.74
2022-12-15T02:50:43.029Z,-2.60
2022-12-15T02:53:25.275Z,-2.61
2022-12-15T02:56:05.442Z,-2.67
2022-12-15T02:58:40.053Z,-2.57
2022-12-15T03:01:16.181Z,-2.52
2022-12-15T03:03:47.865Z,-2.56
2022-12-15T03:06:17.356Z,-2.47
2022-12-15T03:08:45.438Z,-2.42
2022-12-15T03:11:13.532Z,-2.38
2022-12-15T03:13:41.628Z,-2.36
2022-12-15T03:16:09.746Z,-2.33
2022-12-15T03:18:38.253Z,-2.29
2022-12-15T03:21:07.687Z,-2.31
2022-12-15T03:23:35.702Z,-2.34
2022-12-15T03:26:03.809Z,-2.24
2022-12-15T03:28:31.702Z,-2.23
2022-12-15T03:30:59.878Z,-2.20
2022-12-15T03:33:28.307Z,-2.19
2022-12-15T03:35:56.634Z,-2.15
2022-12-15T03:38:26.099Z,-2.06
2022-12-15T03:40:54.102Z,-2.06
2022-12-15T03:43:21.978Z,-2.00
2022-12-15T03:45:50.325Z,-1.97
2022-12-15T03:48:18.735Z,-2.03
2022-12-15T03:50:49.022Z,-2.07
2022-12-15T03:53:17.016Z,-2.15
2022-12-15T03:55:46.581Z,-2.04
2022-12-15T03:58:14.554Z,-1.95
2022-12-15T04:00:44.984Z,-1.88
2022-12-15T04:03:13.349Z,-1.91
2022-12-15T04:05:41.401Z,-1.92
2022-12-15T04:08:09.481Z,-1.94
2022-12-15T04:10:37.413Z,-1.98
2022-12-15T04:13:08.879Z,-1.97
2022-12-15T04:15:38.509Z,-1.92
2022-12-15T04:18:10.374Z,-1.91
2022-12-15T04:20:38.970Z,-1.99
2022-12-15T04:23:08.059Z,-1.95
2022-12-15T04:25:54.371Z,-2.01
2022-12-15T04:28:41.553Z,-2.08
2022-12-15T04:31:29.004Z,-2.05
2022-12-15T04:34:17.278Z,-2.12
2022-12-15T04:37:05.364Z,-2.02
2022-12-15T04:39:52.786Z,-1.97
2022-12-15T04:42:38.336Z,-1.95
2022-12-15T04:45:27.643Z,-1.88
2022-12-15T04:48:12.678Z,-2.02
2022-12-15T04:50:58.333Z,-2.07
2022-12-15T04:53:43.786Z,-1.96
2022-12-15T04:56:30.535Z,-1.92
2022-12-15T04:59:15.744Z,-1.81
2022-12-15T05:02:02.727Z,-1.82
2022-12-15T05:04:48.598Z,-1.78
2022-12-15T05:07:34.184Z,-1.70
2022-12-15T05:10:19.979Z,-1.60
2022-12-15T05:13:05.598Z,-1.55
2022-12-15T05:15:52.211Z,-1.52
2022-12-15T05:18:39.613Z,-1.64
2022-12-15T05:21:25.574Z,-1.62
2022-12-15T05:24:11.148Z,-1.58
2022-12-15T05:26:56.913Z,-1.62
2022-12-15T05:29:42.212Z,-1.63
2022-12-15T05:32:11.900Z,-1.63
2022-12-15T05:34:41.185Z,-1.62
2022-12-15T05:37:09.287Z,-1.60
2022-12-15T05:39:37.361Z,-1.54
2022-12-15T05:42:05.653Z,-1.49
2022-12-15T05:44:33.510Z,-1.54
2022-12-15T05:47:01.637Z,-1.57
2022-12-15T05:49:29.549Z,-1.57
2022-12-15T05:51:58.891Z,-1.63
2022-12-15T05:54:26.832Z,-1.59
2022-12-15T05:56:54.618Z,-1.56
2022-12-15T05:59:22.688Z,-1.54
2022-12-15T06:01:50.603Z,-1.48
2022-12-15T06:04:18.560Z,-1.55
2022-12-15T06:06:46.493Z,-1.53
2022-12-15T06:09:15.982Z,-1.49
2022-12-15T06:11:46.016Z,-1.50
2022-12-15T06:14:19.467Z,-1.47
2022-12-15T06:16:51.179Z,-1.43
2022-12-15T06:19:20.165Z,-1.35
2022-12-15T06:21:47.988Z,-1.34
2022-12-15T06:24:17.212Z,-1.33
2022-12-15T06:26:45.098Z,-1.27
2022-12-15T06:29:14.383Z,-1.24
2022-12-15T06:31:43.943Z,-1.17
2022-12-15T06:34:14.348Z,-1.22
2022-12-15T06:36:42.369Z,-1.28
2022-12-15T06:39:13.015Z,-1.50
2022-12-15T06:41:43.149Z,-1.50
2022-12-15T06:44:14.400Z,-1.50
2022-12-15T06:46:42.895Z,-1.59
2022-12-15T06:49:10.853Z,-1.67
2022-12-15T06:51:39.525Z,-1.68
2022-12-15T06:54:07.594Z,-1.75
2022-12-15T06:56:37.078Z,-1.81
2022-12-15T06:59:08.382Z,-1.81
2022-12-15T07:01:36.904Z,-1.82
2022-12-15T07:04:05.791Z,-1.85
2022-12-15T07:06:37.576Z,-1.83
2022-12-15T07:09:08.330Z,-1.87
2022-12-15T07:11:36.725Z,-1.93
2022-12-15T07:14:06.155Z,-1.97
2022-12-15T07:16:34.685Z,-2.05
2022-12-15T07:19:02.726Z,-2.01
2022-12-15T07:21:31.782Z,-2.06
2022-12-15T07:24:00.521Z,-2.03
2022-12-15T07:26:29.178Z,-2.06
2022-12-15T07:28:57.095Z,-2.04
2022-12-15T07:31:26.366Z,-2.01
2022-12-15T07:33:55.074Z,-2.10
2022-12-15T07:36:23.162Z,-2.06
2022-12-15T07:38:51.886Z,-2.11
2022-12-15T07:41:21.054Z,-2.13
2022-12-15T07:43:49.276Z,-2.04
2022-12-15T07:46:17.403Z,-2.00
2022-12-15T07:48:50.186Z,-1.87
2022-12-15T07:51:21.094Z,-1.72
2022-12-15T07:53:50.023Z,-1.51
2022-12-15T07:56:19.168Z,-1.55
2022-12-15T07:58:47.223Z,-1.54
2022-12-15T08:01:16.393Z,-1.38
2022-12-15T08:03:45.137Z,-1.25
2022-12-15T08:06:16.340Z,-1.28
2022-12-15T08:08:50.802Z,-1.21
2022-12-15T08:11:20.436Z,-1.15
2022-12-15T08:14:02.724Z,-1.15
2022-12-15T08:16:34.634Z,-1.12
2022-12-15T08:19:02.861Z,-1.18
2022-12-15T08:21:32.356Z,-1.26
2022-12-15T08:24:01.926Z,-1.26
2022-12-15T08:26:31.044Z,-1.25
2022-12-15T08:29:24.387Z,-1.24
2022-12-15T08:31:50.968Z,-1.14
2022-12-15T08:34:19.027Z,-1.02
2022-12-15T08:36:48.369Z,-0.92
2022-12-15T08:39:16.572Z,-0.69
2022-12-15T08:41:44.893Z,-0.49
2022-12-15T08:44:12.832Z,-0.37
2022-12-15T08:46:40.984Z,-0.33
2022-12-15T08:49:09.262Z,-0.27
2022-12-15T08:51:37.893Z,-0.26
2022-12-15T08:54:07.201Z,-0.23
2022-12-15T08:56:36.749Z,-0.25
2022-12-15T08:59:04.851Z,-0.21
2022-12-15T09:01:33.414Z,-0.11
2022-12-15T09:04:02.278Z,0.04
2022-12-15T09:06:35.285Z,0.21
2022-12-15T09:09:05.654Z,0.29
2022-12-15T09:11:35.571Z,0.30
2022-12-15T09:14:03.845Z,0.43
2022-12-15T09:16:31.992Z,0.55
2022-12-15T09:19:01.107Z,0.65
2022-12-15T09:21:32.000Z,0.78
2022-12-15T09:24:02.214Z,0.90
2022-12-15T09:26:32.488Z,1.00
2022-12-15T09:29:02.946Z,1.03
2022-12-15T09:31:33.470Z,1.09
2022-12-15T09:34:02.583Z,1.38
2022-12-15T09:36:32.615Z,1.43
2022-12-15T09:39:01.974Z,1.42
2022-12-15T09:41:32.148Z,1.35
2022-12-15T09:44:05.268Z,1.50
2022-12-15T09:46:50.240Z,1.57
2022-12-15T09:49:26.407Z,1.63
2022-12-15T09:52:01.028Z,1.38
2022-12-15T09:54:33.404Z,1.38
2022-12-15T09:57:06.361Z,1.31
2022-12-15T09:59:43.434Z,1.47
2022-12-15T10:02:30.434Z,1.64
2022-12-15T10:05:07.098Z,1.60
2022-12-15T10:07:42.272Z,1.55
2022-12-15T10:10:18.930Z,1.56
2022-12-15T10:12:59.903Z,1.71
2022-12-15T10:15:37.303Z,1.78
2022-12-15T10:18:12.835Z,1.83
2022-12-15T10:20:41.329Z,1.83
2022-12-15T10:23:15.359Z,1.73
2022-12-15T10:25:51.485Z,1.74
2022-12-15T10:28:51.348Z,1.79
2022-12-15T10:31:32.804Z,1.84
2022-12-15T10:34:23.348Z,1.93
2022-12-15T10:36:54.850Z,1.96
2022-12-15T10:39:24.175Z,2.11
2022-12-15T10:42:12.522Z,1.92
2022-12-15T10:44:42.743Z,2.00
2022-12-15T10:47:19.015Z,1.94
2022-12-15T10:49:48.988Z,2.10
2022-12-15T10:52:24.469Z,2.16
2022-12-15T10:54:56.556Z,2.10
2022-12-15T10:57:29.118Z,2.28
2022-12-15T10:59:59.952Z,2.40
2022-12-15T11:02:36.832Z,2.46
2022-12-15T11:05:11.172Z,2.48
2022-12-15T11:07:43.213Z,2.39
2022-12-15T11:10:21.313Z,2.38
2022-12-15T11:12:59.831Z,2.53
2022-12-15T11:15:40.126Z,2.51
2022-12-15T11:18:17.219Z,2.63
2022-12-15T11:20:52.012Z,2.55
2022-12-15T11:23:28.091Z,2.83
2022-12-15T11:26:06.777Z,2.83
2022-12-15T11:28:42.448Z,2.62
2022-12-15T11:31:18.716Z,2.74
2022-12-15T11:33:49.316Z,2.84
2022-12-15T11:36:25.635Z,2.69
2022-12-15T11:39:00.248Z,2.66
2022-12-15T11:41:39.638Z,2.93
2022-12-15T11:44:26.900Z,2.96
2022-12-15T11:47:07.220Z,2.97
2022-12-15T11:49:54.214Z,3.17
2022-12-15T11:52:35.896Z,3.32
2022-12-15T11:55:16.318Z,3.53
2022-12-15T11:58:02.316Z,3.72
2022-12-15T12:00:35.676Z,3.66
2022-12-15T12:03:16.186Z,3.69
2022-12-15T12:05:58.526Z,3.68
2022-12-15T12:09:04.094Z,3.54
2022-12-15T12:11:41.583Z,3.47
2022-12-15T12:14:20.781Z,3.59
2022-12-15T12:16:55.773Z,3.48
2022-12-15T12:19:28.808Z,3.54
2022-12-15T12:22:03.665Z,3.68
2022-12-15T12:24:36.704Z,3.78
2022-12-15T12:27:12.583Z,3.85
2022-12-15T12:29:48.717Z,3.98
2022-12-15T12:32:25.355Z,4.14
2022-12-15T12:35:31.676Z,4.16
2022-12-15T12:38:03.129Z,3.97
2022-12-15T12:40:42.287Z,3.96
2022-12-15T12:43:14.397Z,3.92
2022-12-15T12:45:50.807Z,3.81
2022-12-15T12:48:25.944Z,3.79
2022-12-15T12:51:10.886Z,3.85
2022-12-15T12:53:40.198Z,4.02
2022-12-15T12:56:08.371Z,3.92
2022-12-15T12:58:39.689Z,3.72
2022-12-15T13:01:21.104Z,3.86
2022-12-15T13:04:07.622Z,3.95
2022-12-15T13:06:59.582Z,4.08
2022-12-15T13:09:40.368Z,4.01
2022-12-15T13:12:53.183Z,3.91
2022-12-15T13:15:35.682Z,3.88
2022-12-15T13:18:08.356Z,3.84
2022-12-15T13:20:38.127Z,3.92
2022-12-15T13:23:41.505Z,3.90
2022-12-15T13:26:20.829Z,3.99
2022-12-15T13:28:53.432Z,3.87
2022-12-15T13:31:33.687Z,3.91
2022-12-15T13:34:15.390Z,3.85
2022-12-15T13:37:02.496Z,3.87
2022-12-15T13:39:58.925Z,3.89
2022-12-15T13:42:53.226Z,3.93
2022-12-15T13:45:42.901Z,4.11
2022-12-15T13:48:21.470Z,4.02
2022-12-15T13:50:57.216Z,4.05
2022-12-15T13:53:26.868Z,4.15
2022-12-15T13:56:01.782Z,4.15
2022-12-15T13:58:34.852Z,4.25
2022-12-15T14:01:03.864Z,4.19
2022-12-15T14:03:32.301Z,4.23
2022-12-15T14:06:01.547Z,4.18
2022-12-15T14:08:31.716Z,4.19
2022-12-15T14:11:22.235Z,4.16
2022-12-15T14:13:54.678Z,4.23
2022-12-15T14:16:24.770Z,4.28
2022-12-15T14:19:11.561Z,4.31
2022-12-15T14:21:39.832Z,4.34
2022-12-15T14:24:40.232Z,4.41
2022-12-15T14:27:09.772Z,4.29
2022-12-15T14:29:39.890Z,4.29
2022-12-15T14:32:11.034Z,4.21
2022-12-15T14:34:41.966Z,4.22
2022-12-15T14:37:14.985Z,4.28
2022-12-15T14:39:46.763Z,4.32
2022-12-15T14:42:19.055Z,4.23
2022-12-15T14:44:54.919Z,4.23
2022-12-15T14:47:29.619Z,4.11
2022-12-15T14:50:02.590Z,4.08
2022-12-15T14:52:36.199Z,4.15
2022-12-15T14:55:27.537Z,4.15
2022-12-15T14:57:58.697Z,4.22
2022-12-15T15:00:34.068Z,4.27
2022-12-15T15:05:58.268Z,4.21
2022-12-15T15:08:29.822Z,4.24
2022-12-15T15:11:02.942Z,4.26
2022-12-15T15:13:40.111Z,4.21
2022-12-15T15:16:19.174Z,4.16
2022-12-15T15:18:51.123Z,4.25
2022-12-15T15:21:22.983Z,4.24
2022-12-15T15:24:22.688Z,4.00
2022-12-15T15:26:50.771Z,4.05
2022-12-15T15:29:41.088Z,4.11
2022-12-15T15:32:17.431Z,4.16
2022-12-15T15:34:47.139Z,4.10
2022-12-15T15:37:20.119Z,4.01
2022-12-15T15:39:50.360Z,3.83
2022-12-15T15:42:18.897Z,3.97
2022-12-15T15:44:47.599Z,4.12
2022-12-15T15:47:23.315Z,4.24
2022-12-15T15:49:54.948Z,4.21
2022-12-15T15:52:23.884Z,4.14
2022-12-15T15:54:54.247Z,4.22
2022-12-15T15:57:22.618Z,4.10
2022-12-15T15:59:51.143Z,4.15
2022-12-15T16:02:20.917Z,4.17
2022-12-15T16:04:49.015Z,4.11
2022-12-15T16:07:24.094Z,4.22
2022-12-15T16:09:52.429Z,4.35
2022-12-15T16:12:27.616Z,4.22
2022-12-15T16:14:56.246Z,4.18
2022-12-15T16:17:25.797Z,4.17
2022-12-15T16:19:53.780Z,4.26
2022-12-15T16:22:23.442Z,4.35
2022-12-15T16:24:51.392Z,4.38
2022-12-15T16:27:19.266Z,4.40
2022-12-15T16:29:47.266Z,4.45
2022-12-15T16:32:15.518Z,4.47
2022-12-15T16:34:44.947Z,4.44
2022-12-15T16:37:26.303Z,4.41
2022-12-15T16:39:54.401Z,4.19
2022-12-15T16:42:23.259Z,4.21
2022-12-15T16:44:51.200Z,4.27
2022-12-15T16:47:19.243Z,4.22
2022-12-15T16:49:48.510Z,4.13
2022-12-15T16:52:20.848Z,4.23
2022-12-15T16:54:50.185Z,4.22
2022-12-15T16:57:18.455Z,4.15
2022-12-15T16:59:46.486Z,4.18
2022-12-15T17:02:27.004Z,4.12
2022-12-15T17:04:56.760Z,4.18
2022-12-15T17:07:27.890Z,4.16
2022-12-15T17:09:55.805Z,4.19
2022-12-15T17:12:23.665Z,4.24
2022-12-15T17:14:51.743Z,4.25
2022-12-15T17:17:21.012Z,4.21
2022-12-15T17:22:39.637Z,4.02
2022-12-15T17:25:11.220Z,3.98
2022-12-15T17:27:39.450Z,3.93
2022-12-15T17:30:14.375Z,3.96
2022-12-15T17:32:42.489Z,3.86
2022-12-15T17:35:11.191Z,3.83
2022-12-15T17:37:41.416Z,3.87
2022-12-15T17:40:18.098Z,3.80
2022-12-15T17:42:54.619Z,3.72
2022-12-15T17:45:24.444Z,3.72
2022-12-15T17:47:53.522Z,3.70
2022-12-15T17:50:21.386Z,3.67
2022-12-15T17:52:51.088Z,3.67
2022-12-15T17:55:22.713Z,3.67
2022-12-15T17:57:51.336Z,3.69
2022-12-15T18:00:23.150Z,3.64
2022-12-15T18:02:51.425Z,3.59
2022-12-15T18:05:20.537Z,3.58
2022-12-15T18:07:54.269Z,3.52
2022-12-15T18:10:27.043Z,3.48
2022-12-15T18:12:55.401Z,3.41
2022-12-15T18:15:25.550Z,3.38
2022-12-15T18:17:56.064Z,3.33
2022-12-15T18:20:24.772Z,3.32
2022-12-15T18:22:54.118Z,3.27
2022-12-15T18:25:26.054Z,3.18
2022-12-15T18:27:55.040Z,3.11
2022-12-15T18:30:24.812Z,3.06
2022-12-15T18:32:55.807Z,3.10
2022-12-15T18:35:29.858Z,2.96
2022-12-15T18:37:59.508Z,2.90
2022-12-15T18:40:30.789Z,2.92
2022-12-15T18:42:59.050Z,2.84
2022-12-15T18:45:28.359Z,2.86
2022-12-15T18:47:56.376Z,2.80
2022-12-15T18:50:26.897Z,2.68
2022-12-15T18:52:59.665Z,2.61
2022-12-15T18:55:31.123Z,2.59
2022-12-15T18:58:00.743Z,2.59
2022-12-15T19:00:30.563Z,2.58
2022-12-15T19:03:00.969Z,2.59
2022-12-15T19:05:32.585Z,2.60
2022-12-15T19:08:08.315Z,2.58
2022-12-15T19:10:41.285Z,2.59
2022-12-15T19:13:16.672Z,2.60
2022-12-15T19:15:45.176Z,2.63
2022-12-15T19:18:33.451Z,2.63
2022-12-15T19:21:28.945Z,2.64
2022-12-15T19:23:58.503Z,2.62
2022-12-15T19:26:26.638Z,2.53
2022-12-15T19:28:54.920Z,2.51
2022-12-15T19:31:23.029Z,2.51
2022-12-15T19:33:56.994Z,2.48
2022-12-15T19:36:25.669Z,2.44
2022-12-15T19:38:58.880Z,2.47
2022-12-15T19:41:27.651Z,2.44
2022-12-15T19:43:55.621Z,2.46
2022-12-15T19:46:24.043Z,2.39
2022-12-15T19:48:52.084Z,2.31
2022-12-15T19:51:23.151Z,2.30
2022-12-15T19:53:52.005Z,2.36
2022-12-15T19:56:23.687Z,2.35
2022-12-15T19:58:52.093Z,2.39
2022-12-15T20:01:21.286Z,2.41
2022-12-15T20:03:50.969Z,2.40
2022-12-15T20:06:21.381Z,2.43
2022-12-15T20:08:54.665Z,2.47
2022-12-15T20:11:26.647Z,2.41
2022-12-15T20:13:56.142Z,2.37
2022-12-15T20:16:24.889Z,2.44
2022-12-15T20:18:54.791Z,2.43
2022-12-15T20:21:27.521Z,2.39
2022-12-15T20:24:00.550Z,2.37
2022-12-15T20:26:33.160Z,2.41
2022-12-15T20:29:01.466Z,2.40
2022-12-15T20:31:29.536Z,2.42
2022-12-15T20:33:57.502Z,2.48
2022-12-15T20:36:30.703Z,2.55
2022-12-15T20:38:59.243Z,2.44
2022-12-15T20:41:28.911Z,2.41
2022-12-15T20:43:59.021Z,2.36
2022-12-15T20:46:30.225Z,2.43
2022-12-15T20:48:58.306Z,2.40
2022-12-15T20:51:28.057Z,2.32
2022-12-15T20:53:58.233Z,2.32
2022-12-15T20:56:27.555Z,2.16
2022-12-15T20:58:56.995Z,2.11
2022-12-15T21:01:32.003Z,2.13
2022-12-15T21:04:02.029Z,2.13
2022-12-15T21:06:31.628Z,2.15
2022-12-15T21:08:59.487Z,2.08
2022-12-15T21:11:29.758Z,2.02
2022-12-15T21:14:04.019Z,1.98
2022-12-15T21:16:35.584Z,1.90
2022-12-15T21:19:19.952Z,1.89
2022-12-15T21:21:52.244Z,1.84
2022-12-15T21:24:25.838Z,1.87
2022-12-15T21:26:54.998Z,1.88
2022-12-15T21:29:25.252Z,1.83
2022-12-15T21:31:54.775Z,1.80
2022-12-15T21:34:23.974Z,1.86
2022-12-15T21:36:55.105Z,1.83
2022-12-15T21:39:29.264Z,1.78
2022-12-15T21:41:59.219Z,1.79
2022-12-15T21:44:27.061Z,1.86
2022-12-15T21:46:56.360Z,1.92
2022-12-15T21:49:24.389Z,1.89
2022-12-15T21:51:54.878Z,1.93
2022-12-15T21:54:30.615Z,2.00
2022-12-15T21:57:00.007Z,2.00
2022-12-15T21:59:30.781Z,1.89
2022-12-15T22:02:00.935Z,1.86
2022-12-15T22:04:31.915Z,1.73
2022-12-15T22:06:59.849Z,1.72
2022-12-15T22:09:27.885Z,1.63
2022-12-15T22:11:57.614Z,1.64
2022-12-15T22:14:27.335Z,1.68
2022-12-15T22:16:55.678Z,1.65
2022-12-15T22:19:25.601Z,1.64
2022-12-15T22:21:53.630Z,1.61
2022-12-15T22:24:21.648Z,1.49
2022-12-15T22:26:50.024Z,1.49
2022-12-15T22:29:20.405Z,1.51
2022-12-15T22:31:49.512Z,1.52
2022-12-15T22:34:20.936Z,1.53
2022-12-15T22:36:50.773Z,1.55
2022-12-15T22:39:20.358Z,1.57
2022-12-15T22:41:50.430Z,1.51
2022-12-15T22:44:21.634Z,1.54
2022-12-15T22:46:50.985Z,1.60
2022-12-15T22:49:21.576Z,1.60
2022-12-15T22:51:51.411Z,1.54
2022-12-15T22:54:20.864Z,1.57
2022-12-15T22:56:51.781Z,1.54
2022-12-15T22:59:25.931Z,1.51
2022-12-15T23:01:54.156Z,1.52
2022-12-15T23:04:23.120Z,1.61
2022-12-15T23:06:52.540Z,1.60
2022-12-15T23:11:41.986Z,1.55
2022-12-15T23:14:12.206Z,1.58
2022-12-15T23:16:39.607Z,1.63
2022-12-15T23:19:09.042Z,1.59
2022-12-15T23:21:37.764Z,1.64
2022-12-15T23:24:05.894Z,1.59
2022-12-15T23:26:34.135Z,1.56
2022-12-15T23:29:03.885Z,1.63
2022-12-15T23:31:32.087Z,1.67
2022-12-15T23:34:00.400Z,1.70
2022-12-15T23:36:28.386Z,1.64
2022-12-15T23:38:57.848Z,1.65
2022-12-15T23:41:26.134Z,1.64
2022-12-15T23:43:54.208Z,1.68
2022-12-15T23:46:23.861Z,1.68
2022-12-15T23:48:51.871Z,1.65
2022-12-15T23:51:21.022Z,1.69
2022-12-15T23:53:49.434Z,1.73
2022-12-15T23:56:19.568Z,1.78
2022-12-15T23:58:49.609Z,1.85
